createdAt,value
2024-03-15T00:04:11.659Z,4.53
2024-03-15T00:09:14.076Z,4.00
2024-03-15T00:14:16.375Z,6.55
2024-03-15T00:19:18.790Z,4.68
2024-03-15T00:24:21.104Z,7.10
2024-03-15T00:29:23.450Z,6.22
2024-03-15T00:34:25.776Z,7.35
2024-03-15T00:39:28.066Z,4.45
2024-03-15T00:44:30.388Z,5.68
2024-03-15T00:49:35.696Z,5.57
2024-03-15T00:54:38.036Z,2.90
2024-03-15T00:59:40.472Z,4.63
2024-03-15T01:04:42.684Z,3.97
2024-03-15T01:09:45.028Z,4.32
2024-03-15T01:14:47.284Z,4.25
2024-03-15T01:19:49.870Z,4.57
2024-03-15T01:24:53.496Z,3.22
2024-03-15T01:29:55.799Z,4.57
2024-03-15T01:34:58.149Z,4.00
2024-03-15T01:40:00.447Z,4.35
2024-03-15T01:45:02.735Z,7.25
2024-03-15T01:50:08.785Z,4.13
2024-03-15T01:55:11.142Z,4.53
2024-03-15T02:00:14.874Z,4.50
2024-03-15T02:05:17.254Z,4.15
2024-03-15T02:10:22.005Z,3.58
2024-03-15T02:15:24.302Z,3.63
2024-03-15T02:20:27.600Z,5.85
2024-03-15T02:25:29.906Z,5.43
2024-03-15T02:30:32.241Z,4.45
2024-03-15T02:35:34.629Z,2.30
2024-03-15T02:40:36.857Z,5.55
2024-03-15T02:45:39.185Z,4.40
2024-03-15T02:50:41.533Z,4.07
2024-03-15T02:55:43.819Z,3.72
2024-03-15T03:00:47.326Z,9.57
2024-03-15T03:05:49.734Z,4.38
2024-03-15T03:10:51.954Z,4.65
2024-03-15T03:15:54.339Z,4.63
2024-03-15T03:20:56.907Z,5.22
2024-03-15T03:26:00.443Z,8.10
2024-03-15T03:31:03.357Z,5.80
2024-03-15T03:36:05.924Z,6.90
2024-03-15T03:41:08.235Z,7.65
2024-03-15T03:46:10.636Z,5.32
2024-03-15T03:51:13.046Z,7.25
2024-03-15T03:56:16.828Z,6.25
2024-03-15T04:06:22.609Z,4.97
2024-03-15T04:11:26.071Z,5.25
2024-03-15T04:16:28.402Z,9.32
2024-03-15T04:21:30.806Z,7.18
2024-03-15T04:26:33.056Z,9.10
2024-03-15T04:31:35.427Z,8.90
2024-03-15T04:36:37.724Z,12.45
2024-03-15T04:41:40.014Z,7.43
2024-03-15T04:46:42.254Z,8.60
2024-03-15T04:51:45.175Z,6.72
2024-03-15T04:56:47.405Z,10.23
2024-03-15T05:01:49.768Z,16.60
2024-03-15T05:06:52.046Z,12.60
2024-03-15T05:11:54.378Z,15.13
2024-03-15T05:16:56.704Z,10.15
2024-03-15T05:22:00.117Z,10.52
2024-03-15T05:27:02.445Z,13.48
2024-03-15T05:32:05.090Z,10.93
2024-03-15T05:37:08.195Z,11.02
2024-03-15T05:42:10.585Z,12.38
2024-03-15T05:47:13.813Z,14.57
2024-03-15T05:52:16.441Z,10.07
2024-03-15T05:57:18.924Z,13.75
2024-03-15T06:02:21.585Z,13.52
2024-03-15T06:07:23.882Z,14.30
2024-03-15T06:12:28.802Z,10.50
2024-03-15T06:17:32.947Z,13.20
2024-03-15T06:22:35.303Z,11.77
2024-03-15T06:27:37.682Z,8.57
2024-03-15T06:32:41.261Z,11.55
2024-03-15T06:37:45.824Z,13.93
2024-03-15T06:43:10.843Z,11.27
2024-03-15T06:48:19.881Z,10.95
2024-03-15T06:53:22.520Z,23.38
2024-03-15T06:58:25.034Z,15.98
2024-03-15T07:03:29.073Z,11.40
2024-03-15T07:08:31.493Z,11.68
2024-03-15T07:13:33.747Z,16.08
2024-03-15T07:18:36.154Z,14.32
2024-03-15T07:23:40.464Z,14.35
2024-03-15T07:28:43.621Z,15.65
2024-03-15T07:33:45.922Z,15.82
2024-03-15T07:38:49.473Z,14.07
2024-03-15T07:43:51.944Z,13.52
2024-03-15T07:48:54.290Z,12.23
2024-03-15T07:53:57.134Z,13.27
2024-03-15T07:58:59.493Z,13.55
2024-03-15T08:04:01.777Z,12.68
2024-03-15T08:09:05.417Z,12.68
2024-03-15T08:14:07.785Z,15.93
2024-03-15T08:19:10.339Z,11.90
2024-03-15T08:24:14.312Z,10.93
2024-03-15T08:29:19.118Z,9.02
2024-03-15T08:34:23.077Z,7.70
2024-03-15T08:39:25.980Z,9.45
2024-03-15T08:44:28.446Z,7.97
2024-03-15T08:49:30.921Z,9.77
2024-03-15T08:54:35.950Z,6.22
2024-03-15T08:59:38.398Z,6.85
2024-03-15T09:04:40.742Z,7.57
2024-03-15T09:09:44.617Z,9.60
2024-03-15T09:14:47.539Z,10.02
2024-03-15T09:19:49.874Z,8.43
2024-03-15T09:24:53.242Z,11.43
2024-03-15T09:29:55.603Z,8.20
2024-03-15T09:34:58.243Z,6.38
2024-03-15T09:40:00.741Z,7.80
2024-03-15T09:45:03.421Z,4.45
2024-03-15T09:50:06.289Z,8.60
2024-03-15T09:55:11.713Z,8.88
2024-03-15T10:00:16.489Z,7.53
2024-03-15T10:05:18.754Z,8.60
2024-03-15T10:10:21.078Z,6.07
2024-03-15T10:15:25.156Z,5.70
2024-03-15T10:20:27.557Z,5.07
2024-03-15T10:25:35.576Z,8.13
2024-03-15T10:30:39.294Z,3.35
2024-03-15T10:35:43.014Z,4.25
2024-03-15T10:40:46.121Z,3.78
2024-03-15T10:45:50.374Z,3.42
2024-03-15T10:50:54.201Z,0.70
2024-03-15T10:55:56.795Z,4.22
2024-03-15T11:01:01.374Z,1.95
2024-03-15T11:06:04.703Z,4.47
2024-03-15T11:11:08.158Z,3.00
2024-03-15T11:16:22.493Z,2.95
2024-03-15T11:21:25.254Z,3.17
2024-03-15T11:26:30.001Z,3.30
2024-03-15T11:31:33.878Z,4.00
2024-03-15T11:36:36.377Z,3.55
2024-03-15T11:41:39.598Z,3.53
2024-03-15T11:46:42.119Z,3.88
2024-03-15T11:51:45.303Z,3.85
2024-03-15T11:56:47.856Z,5.80
2024-03-15T12:01:50.249Z,5.10
2024-03-15T12:06:52.727Z,5.78
2024-03-15T12:11:56.340Z,4.25
2024-03-15T12:16:58.789Z,4.15
2024-03-15T12:22:01.163Z,5.70
2024-03-15T12:27:04.032Z,5.30
2024-03-15T12:32:06.597Z,6.70
2024-03-15T12:37:09.676Z,4.50
2024-03-15T12:42:17.263Z,5.30
2024-03-15T12:47:19.743Z,4.60
2024-03-15T12:52:22.122Z,5.40
2024-03-15T12:57:24.445Z,4.97
2024-03-15T13:02:27.348Z,6.10
2024-03-15T13:07:29.616Z,5.45
2024-03-15T13:17:35.143Z,6.03
2024-03-15T13:22:37.425Z,7.07
2024-03-15T13:27:39.732Z,7.68
2024-03-15T13:32:42.658Z,4.20
2024-03-15T13:37:45.014Z,4.28
2024-03-15T13:42:50.033Z,7.78
2024-03-15T13:47:52.986Z,7.07
2024-03-15T13:52:55.349Z,4.90
2024-03-15T14:03:04.842Z,6.47
2024-03-15T14:08:07.994Z,6.03
2024-03-15T14:13:10.399Z,5.60
2024-03-15T14:18:13.297Z,6.38
2024-03-15T14:23:15.736Z,6.13
2024-03-15T14:28:18.116Z,6.57
2024-03-15T14:33:20.498Z,5.63
2024-03-15T14:38:23.088Z,7.43
2024-03-15T14:43:25.366Z,5.95
2024-03-15T14:48:27.792Z,5.32
2024-03-15T14:53:30.286Z,6.07
2024-03-15T14:58:32.623Z,7.00
2024-03-15T15:03:36.681Z,7.20
2024-03-15T15:08:40.987Z,12.35
2024-03-15T15:13:44.008Z,7.10
2024-03-15T15:23:48.655Z,6.78
2024-03-15T15:28:51.503Z,7.63
2024-03-15T15:33:53.883Z,7.60
2024-03-15T15:38:56.413Z,9.13
2024-03-15T15:43:59.083Z,6.95
2024-03-15T15:49:01.483Z,5.82
2024-03-15T15:54:08.469Z,8.02
2024-03-15T15:59:11.465Z,8.90
2024-03-15T16:04:13.816Z,14.75
2024-03-15T16:14:19.584Z,6.43
2024-03-15T16:19:21.975Z,7.10
2024-03-15T16:24:26.233Z,4.85
2024-03-15T16:29:28.581Z,10.75
2024-03-15T16:34:32.004Z,8.25
2024-03-15T16:39:34.529Z,39.58
2024-03-15T16:49:38.930Z,11.70
2024-03-15T16:54:41.273Z,61.53
2024-03-15T16:59:43.637Z,38.00
2024-03-15T17:04:45.895Z,52.13
2024-03-15T17:09:48.245Z,11.35
2024-03-15T17:14:50.527Z,6.05
2024-03-15T17:19:52.972Z,6.65
2024-03-15T17:24:55.921Z,12.65
2024-03-15T17:30:01.197Z,13.93
2024-03-15T17:35:05.508Z,119.95
2024-03-15T17:40:11.190Z,115.22
2024-03-15T17:45:16.123Z,33.70
2024-03-15T17:50:18.530Z,11.13
2024-03-15T17:55:22.036Z,7.40
2024-03-15T18:00:26.819Z,20.42
2024-03-15T18:05:29.272Z,8.85
2024-03-15T18:10:31.706Z,6.47
2024-03-15T18:15:34.229Z,6.20
2024-03-15T18:20:37.195Z,10.65
2024-03-15T18:25:39.504Z,15.75
2024-03-15T18:30:41.767Z,7.80
2024-03-15T18:35:44.144Z,4.68
2024-03-15T18:40:46.477Z,6.40
2024-03-15T18:45:48.991Z,6.53
2024-03-15T18:50:51.338Z,9.18
2024-03-15T18:55:53.607Z,7.50
2024-03-15T19:00:56.911Z,7.68
2024-03-15T19:06:01.023Z,5.13
2024-03-15T19:11:03.520Z,6.95
2024-03-15T19:16:06.486Z,8.88
2024-03-15T19:21:08.930Z,7.70
2024-03-15T19:26:11.146Z,10.88
2024-03-15T19:31:13.680Z,10.57
2024-03-15T19:36:16.104Z,7.95
2024-03-15T19:41:18.465Z,7.40
2024-03-15T19:46:21.030Z,9.15
2024-03-15T19:51:25.969Z,9.48
2024-03-15T19:56:28.325Z,7.15
2024-03-15T20:01:31.076Z,7.47
2024-03-15T20:06:33.432Z,8.27
2024-03-15T20:11:36.291Z,8.27
2024-03-15T20:16:38.613Z,7.43
2024-03-15T20:21:45.698Z,7.28
2024-03-15T20:26:49.419Z,6.30
2024-03-15T20:31:51.829Z,9.05
2024-03-15T20:36:54.201Z,7.68
2024-03-15T20:41:56.719Z,8.57
2024-03-15T20:46:59.284Z,8.60
2024-03-15T20:52:02.163Z,8.95
2024-03-15T20:57:04.634Z,7.90
2024-03-15T21:02:10.079Z,8.80
2024-03-15T21:07:12.923Z,7.95
2024-03-15T21:12:15.382Z,7.85
2024-03-15T21:17:17.777Z,8.88
2024-03-15T21:22:20.178Z,11.63
2024-03-15T21:27:23.586Z,9.57
2024-03-15T21:32:25.968Z,8.45
2024-03-15T21:37:28.212Z,10.48
2024-03-15T21:42:30.665Z,10.05
2024-03-15T21:47:33.038Z,10.95
2024-03-15T21:52:35.312Z,8.60
2024-03-15T21:57:37.665Z,8.82
2024-03-15T22:02:40.036Z,10.35
2024-03-15T22:07:42.506Z,13.73
2024-03-15T22:12:48.039Z,11.23
2024-03-15T22:17:50.597Z,9.25
2024-03-15T22:22:53.123Z,9.43
2024-03-15T22:27:56.442Z,11.35
2024-03-15T22:32:59.335Z,6.70
2024-03-15T22:38:02.410Z,8.02
2024-03-15T22:43:05.069Z,7.53
2024-03-15T22:53:13.263Z,10.65
2024-03-15T22:58:15.651Z,10.57
2024-03-15T23:03:17.939Z,7.82
2024-03-15T23:08:20.368Z,12.07
2024-03-15T23:13:22.608Z,9.65
2024-03-15T23:18:26.875Z,10.30
2024-03-15T23:23:29.432Z,9.85
2024-03-15T23:33:34.385Z,9.52
2024-03-15T23:38:36.615Z,6.50
2024-03-15T23:43:38.959Z,10.15
2024-03-15T23:48:42.110Z,11.68
2024-03-15T23:53:44.643Z,7.47
2024-03-15T23:58:46.881Z,8.32
